West Delray Beach, Florida
Current Conditions -  °F | °C
As of 3:53 PM on Saturday 25 Oct 2014 (Local Time) from KBCT Reporting Station
Scattered Clouds Scattered Clouds  
Wind Chill: 81°   Ceiling: Unl
Heat Index: 82°   Visibility: 10mi
Dew Point: 64°   Wind: 17mph
Humidity: 58%   Direction: 40°NE
Pressure: 29.9"   Gusts: NA
Location:  26.4537°N, 80.2081°W
Report Text: KBCT 251953Z 04015KT 10SM FEW045 SCT050 27/18 A2990
Loading
Personal Weather Stations






























Interactive Weather Map
Tropical Storm Tracking
New forecast layout! Learn more

10-Day Weather Forecast

Advertisements
Track Severe Weather on mobile